sensor_id;sensor_type;location;lat;lon;timestamp;P1;durP1;ratioP1;P2;durP2;ratioP2
40623;SDS011;26325;48.594;11.650;2023-12-20T17:57:23;5.20;;;1.50;;
40623;SDS011;26325;48.594;11.650;2023-12-20T17:59:50;3.97;;;1.48;;
40623;SDS011;26325;48.594;11.650;2023-12-20T18:02:16;2.75;;;1.30;;
40623;SDS011;26325;48.594;11.650;2023-12-20T18:04:42;4.93;;;1.67;;
40623;SDS011;26325;48.594;11.650;2023-12-20T18:07:08;2.47;;;1.08;;
40623;SDS011;26325;48.594;11.650;2023-12-20T18:09:34;2.83;;;1.30;;
40623;SDS011;26325;48.594;11.650;2023-12-20T18:12:03;2.25;;;1.30;;
40623;SDS011;26325;48.594;11.650;2023-12-20T18:14:32;3.58;;;1.33;;
40623;SDS011;26325;48.594;11.650;2023-12-20T18:16:58;2.38;;;1.48;;
40623;SDS011;26325;48.594;11.650;2023-12-20T18:19:23;2.78;;;1.40;;
40623;SDS011;26325;48.594;11.650;2023-12-20T18:21:51;3.15;;;1.55;;
40623;SDS011;26325;48.594;11.650;2023-12-20T18:24:17;2.42;;;1.50;;
40623;SDS011;26325;48.594;11.650;2023-12-20T18:26:43;2.28;;;1.17;;
40623;SDS011;26325;48.594;11.650;2023-12-20T18:29:11;3.03;;;1.40;;
40623;SDS011;26325;48.594;11.650;2023-12-20T18:31:38;2.03;;;1.40;;
40623;SDS011;26325;48.594;11.650;2023-12-20T18:34:04;2.15;;;1.33;;
40623;SDS011;26325;48.594;11.650;2023-12-20T18:36:29;2.30;;;1.40;;
40623;SDS011;26325;48.594;11.650;2023-12-20T18:38:59;3.25;;;1.50;;
40623;SDS011;26325;48.594;11.650;2023-12-20T18:41:30;3.35;;;1.50;;
40623;SDS011;26325;48.594;11.650;2023-12-20T18:43:55;2.38;;;1.30;;
40623;SDS011;26325;48.594;11.650;2023-12-20T18:46:21;1.60;;;1.20;;
40623;SDS011;26325;48.594;11.650;2023-12-20T18:48:47;2.65;;;1.48;;
40623;SDS011;26325;48.594;11.650;2023-12-20T18:51:13;1.48;;;1.20;;
40623;SDS011;26325;48.594;11.650;2023-12-20T18:53:39;3.03;;;1.50;;
40623;SDS011;26325;48.594;11.650;2023-12-20T18:56:06;3.47;;;1.45;;
40623;SDS011;26325;48.594;11.650;2023-12-20T18:58:32;2.20;;;1.33;;
40623;SDS011;26325;48.594;11.650;2023-12-20T19:00:59;2.83;;;1.50;;
40623;SDS011;26325;48.594;11.650;2023-12-20T19:03:26;2.63;;;1.50;;
40623;SDS011;26325;48.594;11.650;2023-12-20T19:05:52;3.08;;;1.40;;
40623;SDS011;26325;48.594;11.650;2023-12-20T19:08:18;3.70;;;1.65;;
40623;SDS011;26325;48.594;11.650;2023-12-20T19:10:44;2.25;;;1.45;;
40623;SDS011;26325;48.594;11.650;2023-12-20T19:13:11;2.53;;;1.30;;
40623;SDS011;26325;48.594;11.650;2023-12-20T19:15:39;2.75;;;1.33;;
40623;SDS011;26325;48.594;11.650;2023-12-20T19:18:07;4.20;;;1.50;;
40623;SDS011;26325;48.594;11.650;2023-12-20T19:20:35;2.97;;;1.20;;
40623;SDS011;26325;48.594;11.650;2023-12-20T19:23:01;4.15;;;1.67;;
40623;SDS011;26325;48.594;11.650;2023-12-20T19:25:28;2.58;;;1.30;;
40623;SDS011;26325;48.594;11.650;2023-12-20T19:27:54;3.28;;;1.52;;
40623;SDS011;26325;48.594;11.650;2023-12-20T19:30:20;1.85;;;1.27;;
40623;SDS011;26325;48.594;11.650;2023-12-20T19:32:46;3.05;;;1.40;;
40623;SDS011;26325;48.594;11.650;2023-12-20T19:35:12;2.38;;;1.20;;
40623;SDS011;26325;48.594;11.650;2023-12-20T19:37:38;2.67;;;1.35;;
40623;SDS011;26325;48.594;11.650;2023-12-20T19:40:06;3.13;;;1.38;;
40623;SDS011;26325;48.594;11.650;2023-12-20T19:42:36;3.67;;;1.30;;
40623;SDS011;26325;48.594;11.650;2023-12-20T19:45:04;6.03;;;1.30;;
40623;SDS011;26325;48.594;11.650;2023-12-20T19:47:35;3.55;;;1.33;;
40623;SDS011;26325;48.594;11.650;2023-12-20T19:50:01;2.83;;;1.50;;
40623;SDS011;26325;48.594;11.650;2023-12-20T19:52:30;2.25;;;1.20;;
40623;SDS011;26325;48.594;11.650;2023-12-20T19:54:55;2.95;;;1.60;;
40623;SDS011;26325;48.594;11.650;2023-12-20T19:57:22;2.30;;;1.60;;
40623;SDS011;26325;48.594;11.650;2023-12-20T19:59:54;2.17;;;1.20;;
40623;SDS011;26325;48.594;11.650;2023-12-20T20:02:20;2.53;;;1.50;;
40623;SDS011;26325;48.594;11.650;2023-12-20T20:04:46;3.47;;;1.20;;
40623;SDS011;26325;48.594;11.650;2023-12-20T20:07:14;3.90;;;1.15;;
40623;SDS011;26325;48.594;11.650;2023-12-20T20:09:45;4.20;;;1.63;;
40623;SDS011;26325;48.594;11.650;2023-12-20T20:12:14;1.63;;;1.20;;
40623;SDS011;26325;48.594;11.650;2023-12-20T20:14:46;3.35;;;1.50;;
40623;SDS011;26325;48.594;11.650;2023-12-20T20:17:11;2.45;;;1.30;;
40623;SDS011;26325;48.594;11.650;2023-12-20T20:19:39;2.45;;;1.38;;
40623;SDS011;26325;48.594;11.650;2023-12-20T20:22:04;2.53;;;1.63;;
40623;SDS011;26325;48.594;11.650;2023-12-20T20:24:30;3.25;;;1.35;;
40623;SDS011;26325;48.594;11.650;2023-12-20T20:26:56;2.53;;;1.40;;
40623;SDS011;26325;48.594;11.650;2023-12-20T20:29:22;1.40;;;1.30;;
40623;SDS011;26325;48.594;11.650;2023-12-20T20:31:48;2.03;;;1.25;;
40623;SDS011;26325;48.594;11.650;2023-12-20T20:34:16;2.63;;;1.60;;
40623;SDS011;26325;48.594;11.650;2023-12-20T20:36:44;2.92;;;1.40;;
40623;SDS011;26325;48.594;11.650;2023-12-20T20:39:09;2.10;;;1.50;;
40623;SDS011;26325;48.594;11.650;2023-12-20T20:41:38;2.13;;;1.90;;
40623;SDS011;26325;48.594;11.650;2023-12-20T20:44:04;2.67;;;1.52;;
40623;SDS011;26325;48.594;11.650;2023-12-20T20:46:29;1.83;;;1.40;;
40623;SDS011;26325;48.594;11.650;2023-12-20T20:48:56;2.30;;;1.60;;
40623;SDS011;26325;48.594;11.650;2023-12-20T20:51:24;3.35;;;1.60;;
40623;SDS011;26325;48.594;11.650;2023-12-20T20:53:49;1.85;;;1.40;;
40623;SDS011;26325;48.594;11.650;2023-12-20T20:56:15;3.22;;;2.03;;
40623;SDS011;26325;48.594;11.650;2023-12-20T20:58:41;2.17;;;1.58;;
40623;SDS011;26325;48.594;11.650;2023-12-20T21:01:07;2.85;;;1.70;;
40623;SDS011;26325;48.594;11.650;2023-12-20T21:03:33;4.70;;;1.95;;
40623;SDS011;26325;48.594;11.650;2023-12-20T21:05:59;2.35;;;1.92;;
40623;SDS011;26325;48.594;11.650;2023-12-20T21:08:24;5.30;;;2.08;;
40623;SDS011;26325;48.594;11.650;2023-12-20T21:10:50;2.58;;;1.80;;
40623;SDS011;26325;48.594;11.650;2023-12-20T21:13:23;3.28;;;1.90;;
40623;SDS011;26325;48.594;11.650;2023-12-20T21:15:53;2.55;;;2.05;;
40623;SDS011;26325;48.594;11.650;2023-12-20T21:18:18;3.22;;;1.80;;
40623;SDS011;26325;48.594;11.650;2023-12-20T21:20:44;4.00;;;1.92;;
40623;SDS011;26325;48.594;11.650;2023-12-20T21:23:13;2.75;;;1.88;;
40623;SDS011;26325;48.594;11.650;2023-12-20T21:25:43;3.80;;;1.85;;
40623;SDS011;26325;48.594;11.650;2023-12-20T21:28:10;3.17;;;2.00;;
40623;SDS011;26325;48.594;11.650;2023-12-20T21:30:39;3.28;;;2.00;;
40623;SDS011;26325;48.594;11.650;2023-12-20T21:33:06;3.10;;;1.98;;
40623;SDS011;26325;48.594;11.650;2023-12-20T21:35:31;5.70;;;1.80;;
40623;SDS011;26325;48.594;11.650;2023-12-20T21:37:57;4.55;;;1.95;;
40623;SDS011;26325;48.594;11.650;2023-12-20T21:40:23;2.40;;;1.48;;
40623;SDS011;26325;48.594;11.650;2023-12-20T21:42:49;3.30;;;1.98;;
40623;SDS011;26325;48.594;11.650;2023-12-20T21:45:16;3.03;;;1.65;;
40623;SDS011;26325;48.594;11.650;2023-12-20T21:47:42;4.00;;;1.70;;
40623;SDS011;26325;48.594;11.650;2023-12-20T21:50:08;3.13;;;1.63;;
40623;SDS011;26325;48.594;11.650;2023-12-20T21:52:33;1.60;;;1.30;;
40623;SDS011;26325;48.594;11.650;2023-12-20T21:54:59;2.85;;;1.48;;
40623;SDS011;26325;48.594;11.650;2023-12-20T21:57:25;4.35;;;1.80;;
40623;SDS011;26325;48.594;11.650;2023-12-20T21:59:50;1.75;;;1.30;;
40623;SDS011;26325;48.594;11.650;2023-12-20T22:02:18;3.03;;;1.40;;
40623;SDS011;26325;48.594;11.650;2023-12-20T22:04:43;4.13;;;1.48;;
40623;SDS011;26325;48.594;11.650;2023-12-20T22:07:09;2.03;;;1.45;;
40623;SDS011;26325;48.594;11.650;2023-12-20T22:09:35;3.28;;;1.45;;
40623;SDS011;26325;48.594;11.650;2023-12-20T22:12:03;2.90;;;1.33;;
40623;SDS011;26325;48.594;11.650;2023-12-20T22:14:29;2.78;;;1.50;;
40623;SDS011;26325;48.594;11.650;2023-12-20T22:16:59;3.40;;;1.48;;
40623;SDS011;26325;48.594;11.650;2023-12-20T22:19:24;2.42;;;1.38;;
40623;SDS011;26325;48.594;11.650;2023-12-20T22:21:50;2.20;;;1.30;;
40623;SDS011;26325;48.594;11.650;2023-12-20T22:24:18;3.67;;;1.77;;
40623;SDS011;26325;48.594;11.650;2023-12-20T22:26:43;3.80;;;1.42;;
40623;SDS011;26325;48.594;11.650;2023-12-20T22:29:09;2.83;;;1.50;;
40623;SDS011;26325;48.594;11.650;2023-12-20T22:31:34;3.58;;;1.40;;
40623;SDS011;26325;48.594;11.650;2023-12-20T22:34:00;3.00;;;1.60;;
40623;SDS011;26325;48.594;11.650;2023-12-20T22:36:28;2.60;;;1.17;;
40623;SDS011;26325;48.594;11.650;2023-12-20T22:38:54;3.20;;;1.20;;
40623;SDS011;26325;48.594;11.650;2023-12-20T22:41:22;2.35;;;1.25;;
40623;SDS011;26325;48.594;11.650;2023-12-20T22:43:48;2.58;;;1.45;;
40623;SDS011;26325;48.594;11.650;2023-12-20T22:46:14;2.08;;;1.10;;
40623;SDS011;26325;48.594;11.650;2023-12-20T22:48:44;2.78;;;1.38;;
40623;SDS011;26325;48.594;11.650;2023-12-20T22:51:10;2.67;;;1.58;;
40623;SDS011;26325;48.594;11.650;2023-12-20T22:53:35;3.25;;;1.27;;
40623;SDS011;26325;48.594;11.650;2023-12-20T22:56:01;2.50;;;1.20;;
40623;SDS011;26325;48.594;11.650;2023-12-20T22:58:26;2.22;;;1.30;;
40623;SDS011;26325;48.594;11.650;2023-12-20T23:00:52;2.35;;;1.40;;
40623;SDS011;26325;48.594;11.650;2023-12-20T23:03:20;3.17;;;1.45;;
40623;SDS011;26325;48.594;11.650;2023-12-20T23:05:51;3.40;;;1.45;;
40623;SDS011;26325;48.594;11.650;2023-12-20T23:08:21;2.95;;;1.35;;
40623;SDS011;26325;48.594;11.650;2023-12-20T23:10:47;2.20;;;1.20;;
40623;SDS011;26325;48.594;11.650;2023-12-20T23:13:12;1.83;;;1.20;;
40623;SDS011;26325;48.594;11.650;2023-12-20T23:15:41;3.42;;;1.25;;
40623;SDS011;26325;48.594;11.650;2023-12-20T23:18:07;2.90;;;1.17;;
40623;SDS011;26325;48.594;11.650;2023-12-20T23:20:34;2.83;;;1.35;;
40623;SDS011;26325;48.594;11.650;2023-12-20T23:22:59;1.95;;;1.20;;
40623;SDS011;26325;48.594;11.650;2023-12-20T23:25:25;1.50;;;1.10;;
40623;SDS011;26325;48.594;11.650;2023-12-20T23:27:53;2.13;;;1.13;;
40623;SDS011;26325;48.594;11.650;2023-12-20T23:30:19;1.63;;;1.13;;
40623;SDS011;26325;48.594;11.650;2023-12-20T23:32:45;2.10;;;1.00;;
40623;SDS011;26325;48.594;11.650;2023-12-20T23:35:10;1.23;;;0.95;;
40623;SDS011;26325;48.594;11.650;2023-12-20T23:37:37;2.65;;;1.15;;
40623;SDS011;26325;48.594;11.650;2023-12-20T23:40:03;2.97;;;0.90;;
40623;SDS011;26325;48.594;11.650;2023-12-20T23:42:29;7.15;;;1.15;;
40623;SDS011;26325;48.594;11.650;2023-12-20T23:44:55;2.28;;;0.90;;
40623;SDS011;26325;48.594;11.650;2023-12-20T23:47:21;3.20;;;1.13;;
40623;SDS011;26325;48.594;11.650;2023-12-20T23:49:46;2.45;;;1.20;;
40623;SDS011;26325;48.594;11.650;2023-12-20T23:52:12;2.72;;;1.08;;
40623;SDS011;26325;48.594;11.650;2023-12-20T23:54:40;2.17;;;0.93;;
40623;SDS011;26325;48.594;11.650;2023-12-20T23:57:06;2.63;;;1.00;;
40623;SDS011;26325;48.594;11.650;2023-12-20T23:59:34;1.70;;;1.00;;
